Hibbing Range Regional Airport

About
Name: Hibbing Range Regional Airport
Identifier:  HIB/KHIB
Local Time:  25. Aug 21:25 CDT
Location
Statistics
Flights per Day:
2 flights
Distance: 280km (174mi)
Flights delayed:
89% (0 flights per day delayed)
Delay Average: 39 minutes
Current Weather
 18 C (Humidity: 67%)
  11kt (20km/h / 12mph) from 150°
  Overcast at 4,900 feet (1,493 meter)
  16km (10 mi.)
 METAR KHIB 251553Z AUTO 15011KT 10SM OVC049 18/12 A3003 RMK AO2 SLP171 T01780122

Current Flights

Arrivals
Number Arrival From Airline
 DL4257 21:29  Minneapolis  Delta Air Lines

Current Delays

Departures
N/A
Arrivals
N/A

Destinations

Top Destinations
Airport Flights
per week
Seats
per week
  Minneapolis (MSP) 24 1,248 3 178
  Minneapolis (FCM) 0 - 0 0
  Duluth (DLH) 0 11 0 1
  Chicago (PWK) 0 - 0 0
  Superior (SUW) 0 - 0 0
  Rochester (RST) 0 - 0 0
  Yankton (YKN) 0 - 0 0
  Sheboygan (SBM) 0 - 0 0

Airlines & Planes

Top Airlines
Airline Flights
per Day
Seats
per Day
  SkyWest Airlines 3 168
  Britt Airways 0 11
Jet Charter Inc ( Franklin Lakes Nj ) 0 -
Red Wing Aeroplane 0 -
  National Airlines 0 -
  Flybe Nordic 0 -
Top Plane Types
Model Flights Seats
Bombardier CRJ200 2.9/day 145/day 145
Bombardier Challenger 600 0.6/day 28/day 28.333333333333332
Beech B300 Super King Air 350 0.2/day - 0
Bombardier CRJ100 0.1/day 6/day 6.666666666666667
Piper PA-32R-301T Saratoga II 0.1/day - 0
Cessna C560 0.0/day - 0
Cirrus SR22 0.0/day - 0
Cessna C172 0.0/day - 0